createdAt,value
2018-09-17T00:02:00.383Z,15.83
2018-09-17T00:04:29.811Z,16.63
2018-09-17T00:06:59.341Z,17.87
2018-09-17T00:09:28.711Z,17.10
2018-09-17T00:11:57.468Z,18.67
2018-09-17T00:14:26.580Z,17.23
2018-09-17T00:16:55.527Z,17.10
2018-09-17T00:19:24.837Z,18.10
2018-09-17T00:21:53.740Z,18.90
2018-09-17T00:24:23.258Z,17.73
2018-09-17T00:26:52.836Z,21.43
2018-09-17T00:29:21.630Z,20.80
2018-09-17T00:31:50.498Z,18.00
2018-09-17T00:34:19.461Z,17.40
2018-09-17T00:36:48.881Z,18.20
2018-09-17T00:39:17.598Z,17.70
2018-09-17T00:41:47.096Z,22.00
2018-09-17T00:44:15.856Z,18.10
2018-09-17T00:46:44.612Z,20.63
2018-09-17T00:49:13.402Z,21.50
2018-09-17T00:51:42.375Z,19.37
2018-09-17T00:54:11.634Z,17.83
2018-09-17T00:56:40.428Z,21.30
2018-09-17T00:59:10.154Z,17.33
2018-09-17T01:01:38.879Z,20.77
2018-09-17T01:04:07.813Z,20.17
2018-09-17T01:06:37.822Z,16.50
2018-09-17T01:09:07.353Z,19.00
2018-09-17T01:11:36.797Z,20.47
2018-09-17T01:14:06.292Z,18.97
2018-09-17T01:16:35.009Z,23.37
2018-09-17T01:19:03.763Z,19.00
2018-09-17T01:21:32.560Z,21.13
2018-09-17T01:24:01.515Z,18.23
2018-09-17T01:26:30.338Z,20.00
2018-09-17T01:28:59.709Z,24.80
2018-09-17T01:31:28.776Z,17.70
2018-09-17T01:33:57.505Z,18.70
2018-09-17T01:36:26.904Z,21.00
2018-09-17T01:38:55.652Z,18.60
2018-09-17T01:41:24.572Z,20.20
2018-09-17T01:43:54.171Z,19.13
2018-09-17T01:46:23.132Z,17.80
2018-09-17T01:48:52.704Z,21.70
2018-09-17T01:51:21.581Z,19.67
2018-09-17T01:53:50.358Z,21.03
2018-09-17T01:56:19.325Z,22.00
2018-09-17T01:58:48.757Z,23.00
2018-09-17T02:01:17.712Z,21.40
2018-09-17T02:03:46.516Z,24.23
2018-09-17T02:06:15.397Z,22.10
2018-09-17T02:08:44.292Z,27.10
2018-09-17T02:11:13.096Z,23.37
2018-09-17T02:13:42.669Z,27.43
2018-09-17T02:16:11.881Z,24.07
2018-09-17T02:18:40.761Z,20.83
2018-09-17T02:21:09.612Z,19.90
2018-09-17T02:23:39.073Z,20.70
2018-09-17T02:26:08.432Z,21.33
2018-09-17T02:28:37.200Z,22.07
2018-09-17T02:31:06.145Z,20.60
2018-09-17T02:33:35.059Z,23.80
2018-09-17T02:36:03.890Z,22.73
2018-09-17T02:38:32.561Z,26.57
2018-09-17T02:41:01.340Z,23.70
2018-09-17T02:43:30.386Z,22.07
2018-09-17T02:45:59.886Z,29.43
2018-09-17T02:48:48.840Z,26.73
2018-09-17T02:51:18.265Z,23.17
2018-09-17T02:53:47.772Z,27.10
2018-09-17T02:56:16.641Z,22.50
2018-09-17T02:58:45.479Z,29.10
2018-09-17T03:01:14.925Z,22.00
2018-09-17T03:03:43.700Z,25.77
2018-09-17T03:06:13.023Z,24.10
2018-09-17T03:08:42.540Z,27.07
2018-09-17T03:11:12.046Z,28.50
2018-09-17T03:13:41.600Z,26.90
2018-09-17T03:16:10.487Z,25.23
2018-09-17T03:18:49.460Z,28.73
2018-09-17T03:21:19.171Z,25.50
2018-09-17T03:23:48.637Z,25.53
2018-09-17T03:26:17.841Z,27.87
2018-09-17T03:28:46.666Z,29.50
2018-09-17T03:31:15.476Z,27.03
2018-09-17T03:33:44.305Z,30.27
2018-09-17T03:36:13.049Z,28.43
2018-09-17T03:38:46.934Z,34.80
2018-09-17T03:41:16.525Z,32.70
2018-09-17T03:43:47.878Z,26.80
2018-09-17T03:46:16.813Z,30.00
2018-09-17T03:48:45.813Z,21.80
2018-09-17T03:51:15.021Z,30.07
2018-09-17T03:53:44.029Z,22.33
2018-09-17T03:56:12.848Z,26.43
2018-09-17T03:58:41.764Z,25.30
2018-09-17T04:01:10.629Z,29.53
2018-09-17T04:03:39.941Z,23.67
2018-09-17T04:06:08.834Z,22.50
2018-09-17T04:08:37.650Z,23.77
2018-09-17T04:11:08.993Z,24.63
2018-09-17T04:13:38.476Z,23.63
2018-09-17T04:16:23.733Z,26.70
2018-09-17T04:18:53.246Z,25.43
2018-09-17T04:21:22.048Z,23.50
2018-09-17T04:23:51.529Z,22.53
2018-09-17T04:26:21.034Z,24.83
2018-09-17T04:28:50.100Z,23.20
2018-09-17T04:31:18.818Z,23.70
2018-09-17T04:33:47.690Z,23.37
2018-09-17T04:36:16.477Z,24.30
2018-09-17T04:38:46.829Z,23.50
2018-09-17T04:41:15.562Z,24.37
2018-09-17T04:43:50.817Z,25.07
2018-09-17T04:46:20.260Z,21.97
2018-09-17T04:48:49.090Z,27.07
2018-09-17T04:51:18.207Z,23.70
2018-09-17T04:53:46.900Z,26.80
2018-09-17T04:56:16.472Z,28.40
2018-09-17T04:58:46.686Z,25.30
2018-09-17T05:01:15.596Z,29.37
2018-09-17T05:03:45.164Z,27.33
2018-09-17T05:06:13.924Z,34.30
2018-09-17T05:08:43.429Z,29.53
2018-09-17T05:11:12.943Z,22.30
2018-09-17T05:13:41.666Z,23.30
2018-09-17T05:16:11.502Z,22.50
2018-09-17T05:18:41.890Z,23.10
2018-09-17T05:21:10.818Z,23.23
2018-09-17T05:23:39.721Z,20.73
2018-09-17T05:26:08.665Z,20.00
2018-09-17T05:28:37.544Z,21.30
2018-09-17T05:31:07.042Z,20.70
2018-09-17T05:33:35.988Z,24.10
2018-09-17T05:36:05.285Z,26.63
2018-09-17T05:38:34.773Z,23.87
2018-09-17T05:41:04.325Z,21.00
2018-09-17T05:43:33.912Z,20.40
2018-09-17T05:46:03.533Z,19.07
2018-09-17T05:48:32.361Z,18.00
2018-09-17T05:51:01.408Z,21.20
2018-09-17T05:53:30.258Z,19.93
2018-09-17T05:55:59.717Z,22.00
2018-09-17T05:58:29.624Z,19.67
2018-09-17T06:00:58.461Z,20.13
2018-09-17T06:03:27.355Z,20.53
2018-09-17T06:05:56.809Z,19.73
2018-09-17T06:08:26.124Z,18.07
2018-09-17T06:10:55.026Z,18.37
2018-09-17T06:13:23.725Z,22.07
2018-09-17T06:15:53.016Z,19.30
2018-09-17T06:18:21.789Z,17.63
2018-09-17T06:20:50.642Z,19.20
2018-09-17T06:23:19.443Z,22.30
2018-09-17T06:25:48.858Z,19.30
2018-09-17T06:28:17.580Z,18.20
2018-09-17T06:30:46.442Z,19.43
2018-09-17T06:33:15.288Z,20.20
2018-09-17T06:35:44.764Z,20.30
2018-09-17T06:38:14.217Z,22.43
2018-09-17T06:40:43.004Z,18.70
2018-09-17T06:43:11.860Z,16.00
2018-09-17T06:45:40.667Z,16.23
2018-09-17T06:48:09.572Z,19.43
2018-09-17T06:50:38.484Z,14.63
2018-09-17T06:53:07.464Z,14.83
2018-09-17T06:55:36.309Z,16.40
2018-09-17T06:58:05.269Z,16.17
2018-09-17T07:00:34.155Z,18.83
2018-09-17T07:03:03.062Z,14.73
2018-09-17T07:05:31.960Z,18.43
2018-09-17T07:08:00.900Z,16.80
2018-09-17T07:10:29.701Z,14.57
2018-09-17T07:12:59.144Z,15.40
2018-09-17T07:15:27.881Z,12.93
2018-09-17T07:17:56.722Z,13.23
2018-09-17T07:20:25.614Z,12.20
2018-09-17T07:22:54.410Z,13.90
2018-09-17T07:25:23.235Z,14.13
2018-09-17T07:27:51.950Z,14.43
2018-09-17T07:30:21.537Z,16.47
2018-09-17T07:32:50.417Z,13.87
2018-09-17T07:35:20.005Z,19.07
2018-09-17T07:37:49.504Z,14.60
2018-09-17T07:40:19.188Z,15.70
2018-09-17T07:42:48.008Z,16.87
2018-09-17T07:45:16.856Z,15.13
2018-09-17T07:47:45.771Z,14.17
2018-09-17T07:50:14.624Z,14.23
2018-09-17T07:52:43.526Z,14.57
2018-09-17T07:55:12.394Z,13.23
2018-09-17T07:57:41.242Z,13.90
2018-09-17T08:00:10.564Z,13.00
2018-09-17T08:02:39.269Z,13.20
2018-09-17T08:05:08.219Z,13.37
2018-09-17T08:07:37.173Z,16.23
2018-09-17T08:10:07.181Z,12.87
2018-09-17T08:12:36.134Z,12.20
2018-09-17T08:15:05.955Z,10.93
2018-09-17T08:17:35.417Z,10.70
2018-09-17T08:20:04.805Z,12.40
2018-09-17T08:22:33.673Z,10.73
2018-09-17T08:25:02.402Z,9.97
2018-09-17T08:27:31.592Z,10.10
2018-09-17T08:30:00.406Z,9.87
2018-09-17T08:32:29.139Z,8.57
2018-09-17T08:34:57.893Z,9.70
2018-09-17T08:37:26.838Z,11.73
2018-09-17T08:39:56.573Z,9.70
2018-09-17T08:42:25.948Z,8.60
2018-09-17T08:44:55.287Z,11.73
2018-09-17T08:47:24.314Z,7.20
2018-09-17T08:49:53.088Z,7.60
2018-09-17T08:52:21.830Z,5.80
2018-09-17T08:54:55.765Z,6.00
2018-09-17T08:57:29.764Z,5.27
2018-09-17T09:00:03.548Z,5.93
2018-09-17T09:02:37.692Z,5.60
2018-09-17T09:05:11.848Z,6.67
2018-09-17T09:07:57.109Z,4.20
2018-09-17T09:11:31.753Z,4.80
2018-09-17T09:14:06.357Z,5.33
2018-09-17T09:16:35.272Z,4.80
2018-09-17T09:19:04.104Z,4.87
2018-09-17T09:21:32.844Z,4.73
2018-09-17T09:24:01.509Z,5.30
2018-09-17T09:26:30.824Z,3.90
2018-09-17T09:28:59.604Z,3.80
2018-09-17T09:31:28.265Z,3.60
2018-09-17T09:33:57.688Z,3.40
2018-09-17T09:36:26.524Z,3.10
2018-09-17T09:38:55.276Z,2.60
2018-09-17T09:41:24.027Z,2.90
2018-09-17T09:43:52.758Z,2.50
2018-09-17T09:46:21.446Z,3.10
2018-09-17T09:48:50.804Z,4.33
2018-09-17T09:51:20.250Z,2.67
2018-09-17T09:53:49.001Z,2.30
2018-09-17T09:56:17.765Z,3.63
2018-09-17T09:58:46.405Z,3.20
2018-09-17T10:01:20.359Z,2.30
2018-09-17T10:04:51.876Z,2.23
2018-09-17T10:07:20.582Z,2.20
2018-09-17T10:09:54.721Z,1.93
2018-09-17T10:12:28.693Z,2.20
2018-09-17T10:15:02.561Z,2.83
2018-09-17T10:17:37.312Z,2.00
2018-09-17T10:20:06.112Z,2.23
2018-09-17T10:22:34.775Z,2.63
2018-09-17T10:25:03.492Z,3.10
2018-09-17T10:27:33.341Z,2.43
2018-09-17T10:30:02.917Z,2.10
2018-09-17T10:32:31.634Z,4.10
2018-09-17T10:35:01.031Z,2.40
2018-09-17T10:37:30.401Z,2.63
2018-09-17T10:39:59.140Z,2.30
2018-09-17T10:42:27.841Z,2.50
2018-09-17T10:44:57.101Z,2.50
2018-09-17T10:47:25.789Z,2.53
2018-09-17T10:49:54.553Z,2.57
2018-09-17T10:52:23.300Z,2.20
2018-09-17T10:54:52.084Z,2.80
2018-09-17T10:57:20.944Z,2.47
2018-09-17T10:59:49.822Z,2.30
2018-09-17T11:02:19.225Z,2.77
2018-09-17T11:04:49.237Z,2.60
2018-09-17T11:07:17.931Z,2.53
2018-09-17T11:09:46.648Z,5.07
2018-09-17T11:12:15.629Z,3.53
2018-09-17T11:14:44.336Z,2.40
2018-09-17T11:17:13.009Z,4.10
2018-09-17T11:19:41.751Z,2.50
2018-09-17T11:22:11.537Z,2.20
2018-09-17T11:24:40.345Z,1.97
2018-09-17T11:27:08.957Z,2.60
2018-09-17T11:29:38.520Z,3.20
2018-09-17T11:32:07.776Z,2.20
2018-09-17T11:34:36.469Z,5.37
2018-09-17T11:37:05.306Z,2.30
2018-09-17T11:39:34.062Z,2.10
2018-09-17T11:42:02.844Z,4.67
2018-09-17T11:44:31.512Z,2.20
2018-09-17T11:47:00.799Z,2.30
2018-09-17T11:49:29.608Z,2.70
2018-09-17T11:51:58.472Z,2.80
2018-09-17T11:54:27.932Z,2.50
2018-09-17T11:56:56.605Z,2.60
2018-09-17T11:59:25.341Z,3.60
2018-09-17T12:01:59.522Z,2.50
2018-09-17T12:04:31.872Z,2.30
2018-09-17T12:07:06.781Z,2.37
2018-09-17T12:09:35.392Z,3.13
2018-09-17T12:12:04.186Z,2.40
2018-09-17T12:14:32.872Z,2.40
2018-09-17T12:17:01.492Z,2.30
2018-09-17T12:19:31.136Z,2.40
2018-09-17T12:21:59.755Z,2.30
2018-09-17T12:24:28.387Z,2.93
2018-09-17T12:26:57.229Z,2.10
2018-09-17T12:29:25.877Z,2.43
2018-09-17T12:31:54.697Z,2.20
2018-09-17T12:34:23.336Z,1.93
2018-09-17T12:36:52.029Z,1.90
2018-09-17T12:39:20.703Z,2.00
2018-09-17T12:41:49.859Z,4.13
2018-09-17T12:44:18.712Z,1.93
2018-09-17T12:46:47.490Z,2.00
2018-09-17T12:49:16.196Z,1.90
2018-09-17T12:51:44.955Z,2.10
2018-09-17T12:54:13.883Z,2.00
2018-09-17T12:56:42.892Z,2.30
2018-09-17T12:59:11.704Z,2.03
2018-09-17T13:01:40.505Z,2.10
2018-09-17T13:04:10.197Z,2.03
2018-09-17T13:06:39.015Z,2.97
2018-09-17T13:09:09.197Z,2.17
2018-09-17T13:11:38.062Z,1.90
2018-09-17T13:14:06.962Z,4.27
2018-09-17T13:16:37.972Z,1.80
2018-09-17T13:19:08.568Z,2.17
2018-09-17T13:21:37.829Z,2.40
2018-09-17T13:24:07.051Z,2.07
2018-09-17T13:26:36.265Z,3.73
2018-09-17T13:29:05.559Z,2.30
2018-09-17T13:31:35.229Z,2.07
2018-09-17T13:34:03.931Z,1.70
2018-09-17T13:36:32.697Z,3.70
2018-09-17T13:39:01.365Z,2.00
2018-09-17T13:41:30.120Z,2.10
2018-09-17T13:43:59.480Z,1.83
2018-09-17T13:46:28.168Z,2.50
2018-09-17T13:48:56.936Z,2.30
2018-09-17T13:51:26.428Z,2.83
2018-09-17T13:53:55.340Z,2.00
2018-09-17T13:56:24.196Z,2.20
2018-09-17T13:58:52.953Z,3.40
2018-09-17T14:01:28.276Z,2.00
2018-09-17T14:03:57.676Z,3.13
2018-09-17T14:06:26.630Z,2.53
2018-09-17T14:08:55.338Z,6.10
2018-09-17T14:11:24.700Z,2.50
2018-09-17T14:13:54.256Z,2.40
2018-09-17T14:16:28.336Z,2.30
2018-09-17T14:18:58.137Z,2.33
2018-09-17T14:21:26.762Z,3.13
2018-09-17T14:23:56.001Z,4.17
2018-09-17T14:26:25.416Z,2.50
2018-09-17T14:28:54.064Z,3.73
2018-09-17T14:31:28.024Z,2.20
2018-09-17T14:33:57.782Z,2.57
2018-09-17T14:36:26.641Z,2.60
2018-09-17T14:38:55.504Z,2.80
2018-09-17T14:41:24.285Z,2.10
2018-09-17T14:43:53.137Z,2.30
2018-09-17T14:46:21.983Z,2.30
2018-09-17T14:48:50.757Z,2.47
2018-09-17T14:51:19.492Z,3.13
2018-09-17T14:53:48.380Z,2.60
2018-09-17T14:56:17.493Z,2.60
2018-09-17T14:58:46.620Z,2.67
2018-09-17T15:01:15.740Z,4.90
2018-09-17T15:03:44.438Z,4.80
2018-09-17T15:06:13.101Z,2.60
2018-09-17T15:08:42.574Z,3.17
2018-09-17T15:11:11.321Z,7.73
2018-09-17T15:13:41.329Z,2.80
2018-09-17T15:16:10.181Z,4.23
2018-09-17T15:18:38.830Z,2.60
2018-09-17T15:21:08.100Z,2.33
2018-09-17T15:23:36.963Z,4.33
2018-09-17T15:26:06.456Z,2.30
2018-09-17T15:28:35.284Z,3.30
2018-09-17T15:31:04.262Z,3.30
2018-09-17T15:33:32.982Z,4.03
2018-09-17T15:36:01.852Z,4.73
2018-09-17T15:38:30.681Z,2.70
2018-09-17T15:40:59.615Z,2.50
2018-09-17T15:43:28.358Z,2.47
2018-09-17T15:45:57.726Z,3.93
2018-09-17T15:48:26.520Z,2.67
2018-09-17T15:50:55.820Z,3.67
2018-09-17T15:53:25.207Z,2.67
2018-09-17T15:55:54.068Z,3.13
2018-09-17T15:58:22.747Z,2.30
2018-09-17T16:00:52.161Z,4.23
2018-09-17T16:03:20.837Z,2.80
2018-09-17T16:05:49.688Z,2.37
2018-09-17T16:08:18.586Z,2.87
2018-09-17T16:10:47.426Z,3.00
2018-09-17T16:13:16.957Z,2.50
2018-09-17T16:15:47.326Z,3.23
2018-09-17T16:18:16.849Z,5.93
2018-09-17T16:20:45.663Z,3.10
2018-09-17T16:23:14.432Z,2.60
2018-09-17T16:25:43.196Z,2.50
2018-09-17T16:28:12.726Z,4.93
2018-09-17T16:30:41.628Z,3.77
2018-09-17T16:33:10.465Z,5.40
2018-09-17T16:35:39.423Z,5.80
2018-09-17T16:38:09.249Z,2.80
2018-09-17T16:40:38.067Z,4.20
2018-09-17T16:43:07.457Z,4.10
2018-09-17T16:45:36.953Z,3.47
2018-09-17T16:48:06.453Z,3.63
2018-09-17T16:50:35.980Z,4.27
2018-09-17T16:53:05.681Z,5.47
2018-09-17T16:55:35.162Z,7.27
2018-09-17T16:58:03.965Z,5.00
2018-09-17T17:00:32.855Z,3.70
2018-09-17T17:03:02.726Z,7.63
2018-09-17T17:05:32.229Z,3.83
2018-09-17T17:08:01.817Z,3.00
2018-09-17T17:10:31.074Z,3.93
2018-09-17T17:12:59.989Z,3.67
2018-09-17T17:15:29.051Z,5.43
2018-09-17T17:17:58.049Z,4.20
2018-09-17T17:20:26.909Z,3.10
2018-09-17T17:22:56.228Z,3.67
2018-09-17T17:25:25.094Z,9.20
2018-09-17T17:27:54.013Z,4.80
2018-09-17T17:30:22.752Z,5.30
2018-09-17T17:32:54.119Z,11.13
2018-09-17T17:35:23.563Z,3.70
2018-09-17T17:37:52.410Z,4.47
2018-09-17T17:40:22.204Z,3.80
2018-09-17T17:42:51.146Z,6.50
2018-09-17T17:45:36.972Z,5.73
2018-09-17T17:48:12.377Z,3.30
2018-09-17T17:50:47.689Z,5.03
2018-09-17T17:53:16.457Z,5.60
2018-09-17T17:55:45.734Z,5.17
2018-09-17T17:58:14.743Z,3.50
2018-09-17T18:00:43.904Z,6.03
2018-09-17T18:03:12.763Z,4.10
2018-09-17T18:05:41.645Z,10.43
2018-09-17T18:08:10.652Z,5.03
2018-09-17T18:10:39.681Z,4.53
2018-09-17T18:13:08.744Z,6.03
2018-09-17T18:15:37.725Z,5.57
2018-09-17T18:18:06.587Z,3.50
2018-09-17T18:20:36.533Z,4.20
2018-09-17T18:23:05.413Z,5.47
2018-09-17T18:25:35.391Z,5.93
2018-09-17T18:28:05.049Z,7.00
2018-09-17T18:30:34.604Z,3.60
2018-09-17T18:33:03.873Z,4.20
2018-09-17T18:35:32.670Z,6.17
2018-09-17T18:38:01.652Z,4.33
2018-09-17T18:40:30.725Z,4.60
2018-09-17T18:43:00.088Z,3.57
2018-09-17T18:45:29.640Z,5.57
2018-09-17T18:47:59.297Z,3.97
2018-09-17T18:50:28.156Z,6.87
2018-09-17T18:52:56.947Z,4.50
2018-09-17T18:55:25.887Z,9.20
2018-09-17T18:57:55.569Z,3.53
2018-09-17T19:00:24.336Z,4.20
2018-09-17T19:02:53.190Z,6.97
2018-09-17T19:05:22.144Z,5.03
2018-09-17T19:07:50.832Z,6.70
2018-09-17T19:10:19.696Z,4.10
2018-09-17T19:12:48.547Z,5.50
2018-09-17T19:15:22.623Z,5.07
2018-09-17T19:17:51.562Z,5.63
2018-09-17T19:20:20.435Z,5.63
2018-09-17T19:28:57.121Z,3.23
2018-09-17T19:31:26.052Z,3.80
2018-09-17T19:33:54.894Z,4.20
2018-09-17T19:36:24.020Z,4.90
2018-09-17T19:39:56.857Z,5.17
2018-09-17T19:42:25.834Z,5.30
2018-09-17T19:45:01.353Z,4.80
2018-09-17T19:47:30.085Z,5.07
2018-09-17T19:49:58.977Z,4.40
2018-09-17T19:52:27.877Z,5.43
2018-09-17T19:54:56.755Z,5.70
2018-09-17T19:57:30.883Z,5.03
2018-09-17T20:00:00.673Z,7.40
2018-09-17T20:02:29.571Z,7.23
2018-09-17T20:05:05.543Z,7.33
2018-09-17T20:07:34.269Z,9.43
2018-09-17T20:10:03.749Z,5.90
2018-09-17T20:12:33.262Z,9.93
2018-09-17T20:15:02.157Z,7.10
2018-09-17T20:17:31.013Z,5.90
2018-09-17T20:19:59.831Z,6.60
2018-09-17T20:22:29.340Z,4.40
2018-09-17T20:24:58.809Z,5.23
2018-09-17T20:27:29.318Z,8.73
2018-09-17T20:29:58.896Z,4.80
2018-09-17T20:32:29.534Z,4.57
2018-09-17T20:34:58.356Z,6.57
2018-09-17T20:37:27.149Z,10.03
2018-09-17T20:39:56.057Z,5.70
2018-09-17T20:42:24.888Z,5.10
2018-09-17T20:44:53.828Z,4.60
2018-09-17T20:47:22.810Z,4.50
2018-09-17T20:49:51.631Z,5.80
2018-09-17T20:52:20.467Z,5.33
2018-09-17T20:54:49.467Z,4.30
2018-09-17T20:57:18.253Z,5.23
2018-09-17T20:59:47.016Z,3.97
2018-09-17T21:02:15.884Z,3.87
2018-09-17T21:04:45.204Z,4.07
2018-09-17T21:07:14.322Z,6.03
2018-09-17T21:09:43.067Z,4.80
2018-09-17T21:12:11.891Z,5.30
2018-09-17T21:14:40.813Z,7.10
2018-09-17T21:17:10.409Z,8.77
2018-09-17T21:19:39.211Z,5.60
2018-09-17T21:22:08.157Z,5.37
2018-09-17T21:24:37.065Z,7.17
2018-09-17T21:27:05.701Z,9.80
2018-09-17T21:29:35.219Z,4.47
2018-09-17T21:32:04.725Z,5.00
2018-09-17T21:34:33.452Z,6.33
2018-09-17T21:37:03.146Z,5.80
2018-09-17T21:39:32.027Z,5.03
2018-09-17T21:42:01.005Z,6.53
2018-09-17T21:44:30.614Z,5.63
2018-09-17T21:47:00.078Z,6.27
2018-09-17T21:49:29.560Z,7.00
2018-09-17T21:51:58.334Z,5.87
2018-09-17T21:54:27.040Z,5.73
2018-09-17T21:56:55.865Z,9.10
2018-09-17T21:59:24.815Z,7.47
2018-09-17T22:01:54.615Z,10.07
2018-09-17T22:04:23.384Z,7.83
2018-09-17T22:06:52.408Z,5.90
2018-09-17T22:09:21.276Z,8.23
2018-09-17T22:11:50.008Z,7.23
2018-09-17T22:14:18.896Z,10.20
2018-09-17T22:16:49.898Z,4.67
2018-09-17T22:19:18.689Z,5.53
2018-09-17T22:21:47.495Z,5.10
2018-09-17T22:24:16.352Z,5.97
2018-09-17T22:26:45.097Z,6.30
2018-09-17T22:29:14.765Z,6.63
2018-09-17T22:31:43.429Z,5.10
2018-09-17T22:34:12.277Z,6.50
2018-09-17T22:36:40.941Z,8.27
2018-09-17T22:39:10.784Z,6.83
2018-09-17T22:41:40.320Z,4.80
2018-09-17T22:44:09.237Z,4.27
2018-09-17T22:46:38.014Z,7.83
2018-09-17T22:49:07.270Z,6.27
2018-09-17T22:51:36.095Z,4.87
2018-09-17T22:54:05.058Z,4.73
2018-09-17T22:56:34.176Z,8.00
2018-09-17T22:59:03.310Z,6.40
2018-09-17T23:01:32.909Z,4.90
2018-09-17T23:04:02.196Z,10.50
2018-09-17T23:06:31.014Z,5.20
2018-09-17T23:08:59.717Z,5.80
2018-09-17T23:11:28.472Z,8.40
2018-09-17T23:13:57.201Z,7.43
2018-09-17T23:16:26.122Z,8.77
2018-09-17T23:18:55.716Z,5.70
2018-09-17T23:21:24.508Z,7.10
2018-09-17T23:23:53.593Z,7.30
2018-09-17T23:26:22.364Z,6.07
2018-09-17T23:28:51.101Z,6.20
2018-09-17T23:31:20.488Z,8.13
2018-09-17T23:33:49.467Z,5.73
2018-09-17T23:36:18.409Z,6.50
2018-09-17T23:38:47.236Z,7.30
2018-09-17T23:41:16.048Z,7.03
2018-09-17T23:43:45.163Z,5.90
2018-09-17T23:46:14.736Z,8.70
2018-09-17T23:48:44.272Z,7.20
2018-09-17T23:51:13.084Z,10.37
2018-09-17T23:53:41.932Z,7.70
2018-09-17T23:56:11.009Z,7.80
2018-09-17T23:58:40.618Z,6.60
